Time;durP1;ratioP1;P1;durP2;ratioP2;P2;SDS_P1;SDS_P2;PMS_P1;PMS_P2;Temp;Humidity;BMP_temperature;BMP_pressure;BME280_temperature;BME280_humidity;BME280_pressure;Samples;Min_cycle;Max_cycle;Signal;HPM_P1;HPM_P2
2022/06/05 00:02:17;;;;;;;;;;;18.50;99.90;;;17.67;100.00;95752.63;10515196;28;2326;-76
2022/06/05 00:07:21;;;;;;;;;;;18.60;99.90;;;17.73;100.00;95738.56;10519320;28;2195;-75
2022/06/05 00:12:25;;;;;;;;;;;18.30;99.90;;;17.68;100.00;95735.97;10516761;28;2274;-75
2022/06/05 00:17:29;;;;;;;;;;;18.50;99.90;;;17.66;100.00;95721.13;10501270;28;2261;-75
2022/06/05 00:22:32;;;;;;;;;;;18.50;99.90;;;17.49;100.00;95713.75;10517574;28;2203;-75
2022/06/05 00:27:34;;;;;;;;;;;18.40;99.90;;;17.51;100.00;95706.91;10521037;28;2277;-75
2022/06/05 00:32:38;;;;;;;;;;;18.40;99.90;;;17.50;100.00;95715.38;10509095;28;2204;-75
2022/06/05 00:37:41;;;;;;;;;;;18.40;99.90;;;17.37;100.00;95716.28;10512770;28;2223;-76
2022/06/05 00:42:44;;;;;;;;;;;18.30;99.90;;;17.21;100.00;95708.63;10522620;28;2208;-75
2022/06/05 00:47:47;;;;;;;;;;;18.10;99.90;;;17.29;100.00;95721.41;10525863;28;2254;-75
2022/06/05 00:52:50;;;;;;;;;;;18.10;99.90;;;17.25;100.00;95719.66;10513164;28;1999;-76
2022/06/05 00:57:54;;;;;;;;;;;18.10;99.90;;;17.21;100.00;95719.47;10507367;28;2353;-76
2022/06/05 01:02:57;;;;;;;;;;;18.00;99.90;;;17.09;100.00;95722.00;10509418;28;2238;-75
2022/06/05 01:08:00;;;;;;;;;;;18.00;99.90;;;17.19;100.00;95710.84;10483216;28;2268;-76
2022/06/05 01:13:04;;;;;;;;;;;18.00;99.90;;;17.09;100.00;95704.91;10505374;28;2324;-75
2022/06/05 01:18:08;;;;;;;;;;;17.90;99.90;;;17.09;100.00;95700.28;10488376;28;2196;-75
2022/06/05 01:23:20;;;;;;;;;;;17.90;99.90;;;17.00;100.00;95694.84;10505774;28;2398;-75
2022/06/05 01:28:23;;;;;;;;;;;17.90;99.90;;;17.00;100.00;95704.91;10512557;28;2211;-75
2022/06/05 01:33:26;;;;;;;;;;;17.90;99.90;;;16.97;100.00;95681.09;10492436;28;2245;-75
2022/06/05 01:38:29;;;;;;;;;;;17.80;99.90;;;16.90;100.00;95675.31;10505914;28;2096;-75
2022/06/05 01:43:32;;;;;;;;;;;17.80;99.90;;;16.84;100.00;95682.00;10515722;28;2230;-75
2022/06/05 01:48:35;;;;;;;;;;;17.70;99.90;;;16.91;100.00;95676.91;10509667;28;2168;-75
2022/06/05 01:53:38;;;;;;;;;;;17.70;99.90;;;16.75;100.00;95663.78;10524675;28;2397;-75
2022/06/05 01:58:43;;;;;;;;;;;17.70;99.90;;;16.70;100.00;95661.22;10548156;28;2389;-75
2022/06/05 02:03:47;;;;;;;;;;;17.50;99.90;;;16.85;100.00;95661.88;10534557;28;2430;-75
2022/06/05 02:08:50;;;;;;;;;;;17.60;99.90;;;16.89;100.00;95658.22;10533041;28;2366;-74
2022/06/05 02:13:53;;;;;;;;;;;17.70;99.90;;;16.99;100.00;95646.28;10511923;28;2326;-75
2022/06/05 02:18:56;;;;;;;;;;;17.80;99.90;;;16.89;100.00;95641.94;10513017;28;2294;-74
2022/06/05 02:24:00;;;;;;;;;;;17.80;99.90;;;16.80;100.00;95643.06;10508273;28;2410;-75
2022/06/05 02:29:03;;;;;;;;;;;17.70;99.90;;;16.74;100.00;95640.47;10502894;28;2429;-76
2022/06/05 02:34:06;;;;;;;;;;;17.70;99.90;;;16.52;100.00;95626.97;10502538;28;2366;-75
2022/06/05 02:39:08;;;;;;;;;;;17.50;99.90;;;16.28;100.00;95623.84;10498833;28;2381;-76
2022/06/05 02:44:31;;;;;;;;;;;17.30;99.90;;;16.43;100.00;95612.59;10507368;28;2386;-75
2022/06/05 02:49:33;;;;;;;;;;;17.30;99.90;;;16.35;100.00;95608.75;10511493;28;2426;-75
2022/06/05 02:54:36;;;;;;;;;;;17.20;99.90;;;16.22;100.00;95598.78;10486262;28;2356;-75
2022/06/05 02:59:40;;;;;;;;;;;17.10;99.90;;;16.39;100.00;95585.28;10502384;28;2565;-75
2022/06/05 03:04:43;;;;;;;;;;;17.20;99.90;;;16.27;100.00;95568.81;10509824;28;2401;-75
2022/06/05 03:09:46;;;;;;;;;;;17.20;99.90;;;16.31;100.00;95569.78;10489235;28;2386;-75
2022/06/05 03:14:49;;;;;;;;;;;17.20;99.90;;;16.43;100.00;95563.75;10498213;28;2799;-75
2022/06/05 03:19:53;;;;;;;;;;;17.20;99.90;;;16.40;100.00;95558.94;10503367;28;2588;-76
2022/06/05 03:24:56;;;;;;;;;;;17.20;99.90;;;16.32;100.00;95546.16;10500821;28;2386;-75
2022/06/05 03:29:59;;;;;;;;;;;17.20;99.90;;;16.52;100.00;95536.63;10508023;28;2490;-74
2022/06/05 03:35:04;;;;;;;;;;;17.20;99.90;;;16.57;100.00;95531.06;10494440;28;2319;-74
2022/06/05 03:40:07;;;;;;;;;;;17.30;99.90;;;16.67;100.00;95528.84;10490984;28;2338;-75
2022/06/05 03:45:10;;;;;;;;;;;17.30;99.90;;;16.57;100.00;95531.84;10478310;28;2276;-75
2022/06/05 03:50:14;;;;;;;;;;;17.30;99.90;;;16.64;100.00;95524.03;10483688;28;2294;-75
2022/06/05 03:55:17;;;;;;;;;;;17.40;99.90;;;16.72;100.00;95507.00;10478651;28;2287;-74
2022/06/05 04:00:20;;;;;;;;;;;17.40;99.90;;;16.67;100.00;95507.13;10500593;28;2295;-71
2022/06/05 04:05:23;;;;;;;;;;;17.50;99.90;;;16.90;100.00;95507.78;10500038;28;2354;-73
2022/06/05 04:10:26;;;;;;;;;;;17.60;99.90;;;16.79;100.00;95511.94;10501762;28;2386;-71
2022/06/05 04:15:30;;;;;;;;;;;17.60;99.90;;;17.22;100.00;95506.47;10486111;28;2279;-75
2022/06/05 04:20:44;;;;;;;;;;;17.80;99.90;;;17.58;100.00;95510.72;10485660;28;2406;-74
2022/06/05 04:25:48;;;;;;;;;;;18.10;99.90;;;17.35;100.00;95501.97;10502220;28;2389;-73
2022/06/05 04:30:51;;;;;;;;;;;18.10;99.90;;;17.46;100.00;95480.72;10485008;28;2358;-75
2022/06/05 04:35:54;;;;;;;;;;;18.10;99.90;;;17.99;100.00;95482.91;10506361;28;2322;-74
2022/06/05 04:40:58;;;;;;;;;;;18.40;99.90;;;17.74;100.00;95481.91;10478900;28;2327;-76
2022/06/05 04:46:02;;;;;;;;;;;18.70;99.90;;;17.92;100.00;95469.03;10508321;28;2452;-74
2022/06/05 04:51:05;;;;;;;;;;;18.70;99.90;;;17.61;100.00;95477.44;10498690;28;2377;-74
2022/06/05 04:56:08;;;;;;;;;;;18.60;99.90;;;17.62;100.00;95461.94;10494351;28;2414;-74
2022/06/05 05:01:10;;;;;;;;;;;18.40;99.90;;;17.85;100.00;95454.38;10513410;28;2446;-74
2022/06/05 05:06:13;;;;;;;;;;;18.50;99.90;;;18.10;100.00;95467.81;10520238;28;2319;-75
2022/06/05 05:11:17;;;;;;;;;;;18.70;99.90;;;18.50;100.00;95463.88;10482157;28;2338;-76
2022/06/05 05:16:19;;;;;;;;;;;19.10;99.90;;;18.77;99.51;95457.97;10484978;28;2342;-75
2022/06/05 05:21:23;;;;;;;;;;;19.40;99.90;;;19.44;95.10;95453.28;10510414;28;1958;-74
2022/06/05 05:26:26;;;;;;;;;;;19.90;99.90;;;19.15;95.54;95446.06;10482677;28;2224;-74
2022/06/05 05:31:29;;;;;;;;;;;20.10;99.90;;;19.37;93.10;95434.75;10506787;28;2393;-76
2022/06/05 05:36:33;;;;;;;;;;;20.30;99.90;;;20.03;90.14;95416.66;10507696;28;2330;-75
2022/06/05 05:47:07;;;;;;;;;;;20.80;99.90;;;19.58;91.23;95415.63;10507225;28;2302;-74
2022/06/05 05:52:10;;;;;;;;;;;20.60;99.90;;;19.91;89.86;95412.81;10479968;28;2376;-76
2022/06/05 05:57:15;;;;;;;;;;;20.50;99.90;;;19.38;91.36;95398.19;10512288;28;2194;-76
2022/06/05 06:02:19;;;;;;;;;;;20.40;99.90;;;19.30;92.77;95379.22;10484102;28;2387;-76
2022/06/05 06:07:23;;;;;;;;;;;20.20;99.90;;;19.58;92.03;95377.44;10505035;28;2410;-76
2022/06/05 06:12:26;;;;;;;;;;;20.10;99.90;;;20.34;87.99;95372.38;10485273;28;2346;-76
2022/06/05 06:17:30;;;;;;;;;;;20.70;99.90;;;20.41;86.83;95354.25;10482888;28;2384;-75
2022/06/05 06:22:35;;;;;;;;;;;21.20;99.90;;;20.54;86.09;95359.72;10505598;28;2428;-74
2022/06/05 06:27:39;;;;;;;;;;;21.30;99.90;;;20.55;86.65;95372.22;10505841;28;2542;-75
2022/06/05 06:32:47;;;;;;;;;;;21.30;99.90;;;20.58;86.19;95375.06;10483577;28;2387;-75
2022/06/05 06:37:50;;;;;;;;;;;21.30;99.90;;;20.84;85.72;95379.28;10512998;28;2407;-76
2022/06/05 06:42:53;;;;;;;;;;;21.40;99.90;;;21.49;81.34;95391.56;10501093;28;2299;-76
2022/06/05 06:47:56;;;;;;;;;;;21.90;99.90;;;20.92;85.21;95400.16;10478494;28;2308;-75
2022/06/05 06:52:59;;;;;;;;;;;21.90;99.90;;;21.14;84.95;95417.97;10486667;28;2025;-75
2022/06/05 06:58:02;;;;;;;;;;;21.80;99.90;;;21.30;84.27;95399.66;10487213;28;2332;-74
2022/06/05 07:03:05;;;;;;;;;;;21.90;99.90;;;21.29;83.78;95406.28;10502276;28;2354;-75
2022/06/05 07:08:09;;;;;;;;;;;22.00;99.90;;;21.67;82.44;95413.09;10509590;28;2405;-75
2022/06/05 07:13:12;;;;;;;;;;;22.20;99.90;;;22.37;78.58;95414.00;10497991;28;2338;-74
2022/06/05 07:18:15;;;;;;;;;;;22.60;99.90;;;22.60;76.52;95438.75;10479218;28;2304;-75
2022/06/05 07:23:18;;;;;;;;;;;23.10;99.90;;;24.03;69.27;95545.81;10495235;28;2397;-75
2022/06/05 07:28:21;;;;;;;;;;;23.90;99.90;;;24.79;66.78;95527.44;10518286;28;2271;-74
2022/06/05 07:33:25;;;;;;;;;;;24.60;99.90;;;25.16;63.29;95542.50;10507753;28;2433;-75
2022/06/05 07:38:28;;;;;;;;;;;25.20;99.90;;;25.98;59.35;95524.19;10483464;28;2340;-75
2022/06/05 07:43:31;;;;;;;;;;;25.90;99.90;;;25.60;60.10;95557.22;10501307;28;2441;-75
2022/06/05 07:48:36;;;;;;;;;;;26.10;99.90;;;24.58;64.80;95551.84;10497380;28;2367;-76
2022/06/05 07:58:59;;;;;;;;;;;24.80;99.90;;;23.00;73.81;95566.47;10451941;28;2697;-75
2022/06/05 08:04:22;;;;;;;;;;;23.90;99.90;;;23.27;71.90;95569.38;10505406;28;1985;-74
2022/06/05 08:09:27;;;;;;;;;;;23.70;99.90;;;22.75;74.97;95571.38;10479264;28;2282;-73
2022/06/05 08:14:34;;;;;;;;;;;23.50;99.90;;;22.80;74.66;95562.09;10481588;28;2459;-74
2022/06/05 08:19:37;;;;;;;;;;;23.40;99.90;;;22.39;76.28;95564.25;10475682;28;2391;-73
2022/06/05 08:24:40;;;;;;;;;;;23.10;99.90;;;22.27;77.13;95556.16;10476133;28;2629;-73
2022/06/05 08:29:48;;;;;;;;;;;23.20;99.90;;;22.13;77.29;95542.88;10519277;28;2375;-74
2022/06/05 08:34:51;;;;;;;;;;;23.00;99.90;;;23.05;73.34;95584.59;10511184;28;2488;-75
2022/06/05 08:45:15;;;;;;;;;;;23.40;99.90;;;21.95;78.51;95569.78;10509432;28;2228;-73
2022/06/05 08:50:18;;;;;;;;;;;22.90;99.90;;;22.57;76.10;95575.63;10506950;28;2329;-72
2022/06/05 08:55:21;;;;;;;;;;;23.10;99.90;;;22.71;74.36;95580.66;10505116;28;2279;-74
2022/06/05 09:00:24;;;;;;;;;;;23.40;99.90;;;23.10;71.44;95582.38;10508112;28;2354;-74
2022/06/05 09:05:26;;;;;;;;;;;23.90;99.90;;;22.93;73.81;95593.72;10501208;28;2362;-75
2022/06/05 09:10:30;;;;;;;;;;;23.80;99.90;;;22.39;77.17;95581.50;10500823;28;2323;-76
2022/06/05 09:15:33;;;;;;;;;;;23.20;99.90;;;22.67;75.71;95578.63;10511039;28;2358;-75
2022/06/05 09:20:36;;;;;;;;;;;23.30;99.90;;;22.05;78.65;95580.19;10484436;28;2394;-76
2022/06/05 09:25:40;;;;;;;;;;;23.00;99.90;;;21.39;81.86;95575.28;10503654;28;2330;-77
2022/06/05 09:30:43;;;;;;;;;;;22.70;99.90;;;21.80;80.57;95582.28;10504136;28;2357;-76
2022/06/05 09:35:46;;;;;;;;;;;22.60;99.90;;;21.26;83.75;95596.38;10501216;28;1886;-77
2022/06/05 09:40:49;;;;;;;;;;;22.30;99.90;;;21.00;85.91;95583.13;10484230;28;2405;-76
2022/06/05 09:45:52;;;;;;;;;;;22.00;99.90;;;21.13;86.13;95588.56;10503127;28;2327;-76
2022/06/05 09:50:55;;;;;;;;;;;21.90;99.90;;;21.10;87.35;95591.97;10500059;28;2389;-76
2022/06/05 09:55:59;;;;;;;;;;;21.90;99.90;;;21.40;85.59;95598.75;10500129;28;2259;-76
2022/06/05 10:01:03;;;;;;;;;;;22.00;99.90;;;21.29;86.93;95603.09;10499548;28;2316;-76
2022/06/05 10:06:06;;;;;;;;;;;22.10;99.90;;;21.44;85.53;95601.56;10487614;28;2371;-77
2022/06/05 10:11:09;;;;;;;;;;;22.00;99.90;;;21.26;86.38;95588.16;10502128;28;2404;-74
2022/06/05 10:16:12;;;;;;;;;;;22.10;99.90;;;21.85;83.55;95568.34;10497750;28;2366;-74
2022/06/05 10:21:20;;;;;;;;;;;22.40;99.90;;;21.31;84.99;95562.53;10497867;28;2410;-74
2022/06/05 10:26:23;;;;;;;;;;;22.40;99.90;;;21.20;86.28;95564.16;10484311;28;2360;-76
2022/06/05 10:31:27;;;;;;;;;;;22.10;99.90;;;21.50;84.41;95561.91;10483617;28;2489;-75
2022/06/05 10:36:32;;;;;;;;;;;22.20;99.90;;;21.90;83.03;95559.09;10493116;28;2423;-75
2022/06/05 10:41:36;;;;;;;;;;;22.40;99.90;;;21.87;82.77;95554.31;10503474;28;2188;-75
2022/06/05 10:46:39;;;;;;;;;;;22.60;99.90;;;22.02;83.17;95559.00;10498764;28;2449;-75
2022/06/05 10:51:42;;;;;;;;;;;22.60;99.90;;;22.46;79.92;95548.00;10500545;28;2127;-75
2022/06/05 10:56:45;;;;;;;;;;;22.90;99.90;;;22.15;82.10;95526.13;10482133;28;2249;-74
2022/06/05 11:01:48;;;;;;;;;;;23.00;99.90;;;22.93;77.98;95514.25;10482459;28;2414;-76
2022/06/05 11:06:51;;;;;;;;;;;23.30;99.90;;;23.20;75.52;95506.97;10495228;28;2039;-75
2022/06/05 11:17:15;;;;;;;;;;;24.10;99.90;;;23.94;71.47;95490.34;10481290;28;1827;-74
2022/06/05 11:22:18;;;;;;;;;;;24.60;99.90;;;23.76;72.60;95483.75;10501003;28;2022;-75
2022/06/05 11:27:21;;;;;;;;;;;24.70;99.90;;;24.27;69.71;95468.53;10482439;28;2013;-75
2022/06/05 11:32:28;;;;;;;;;;;24.80;99.90;;;24.24;70.83;95472.03;10496553;28;1955;-75
2022/06/05 11:37:41;;;;;;;;;;;24.90;99.90;;;24.27;69.13;95451.28;10536264;28;1992;-76
2022/06/05 11:42:44;;;;;;;;;;;25.10;99.90;;;24.55;68.92;95450.91;10512448;28;2102;-75
2022/06/05 11:47:47;;;;;;;;;;;25.10;99.90;;;24.82;67.46;95437.16;10491399;28;1906;-75
2022/06/05 11:52:50;;;;;;;;;;;25.20;99.90;;;25.02;66.91;95438.59;10512722;28;1976;-76
2022/06/05 11:57:53;;;;;;;;;;;25.50;99.90;;;25.68;63.67;95416.91;10511114;28;1803;-75
2022/06/05 12:02:58;;;;;;;;;;;26.00;99.90;;;25.87;63.15;95416.72;10496540;28;1986;-76
2022/06/05 12:08:01;;;;;;;;;;;26.20;99.90;;;25.59;62.67;95426.28;10505066;28;1918;-76
2022/06/05 12:13:06;;;;;;;;;;;26.30;99.90;;;25.58;65.51;95423.91;10493350;28;1990;-76
2022/06/05 12:18:09;;;;;;;;;;;26.10;99.90;;;25.99;63.13;95421.13;10489334;28;2300;-77
2022/06/05 12:23:12;;;;;;;;;;;26.40;99.90;;;26.85;58.35;95405.97;10516728;28;1857;-77
2022/06/05 12:28:17;;;;;;;;;;;26.90;99.90;;;27.27;55.60;95421.88;10505881;28;1918;-76
2022/06/05 12:33:20;;;;;;;;;;;27.50;99.90;;;26.63;58.41;95421.59;10494494;28;1854;-76
2022/06/05 12:38:23;;;;;;;;;;;27.40;99.90;;;26.22;58.42;95418.97;10504445;28;1948;-76
2022/06/05 12:43:26;;;;;;;;;;;27.20;99.90;;;26.75;57.47;95390.94;10496471;28;1986;-76
2022/06/05 12:48:29;;;;;;;;;;;27.10;99.90;;;27.57;53.73;95384.91;10491318;28;1925;-75
2022/06/05 12:53:32;;;;;;;;;;;27.60;99.90;;;26.95;54.53;95375.66;10490004;28;2060;-75
2022/06/05 12:58:35;;;;;;;;;;;27.60;99.90;;;26.62;56.13;95367.63;10491120;28;1858;-76
2022/06/05 13:03:39;;;;;;;;;;;27.40;99.90;;;26.57;56.14;95384.53;10489229;28;1800;-76
2022/06/05 13:08:43;;;;;;;;;;;27.10;99.90;;;26.12;57.74;95383.84;10506771;28;2017;-76
2022/06/05 13:13:46;;;;;;;;;;;26.80;99.90;;;25.17;62.88;95384.56;10503984;28;1901;-74
2022/06/05 13:18:49;;;;;;;;;;;26.20;99.90;;;24.77;66.00;95370.34;10485346;28;1827;-75
2022/06/05 13:23:52;;;;;;;;;;;25.70;99.90;;;24.00;70.03;95359.88;10509303;28;1875;-75
2022/06/05 13:29:03;;;;;;;;;;;25.10;99.90;;;23.72;72.17;95351.97;10506335;28;2044;-77
2022/06/05 13:34:06;;;;;;;;;;;24.60;99.90;;;22.90;77.48;95348.59;10497997;28;2097;-76
2022/06/05 13:39:09;;;;;;;;;;;24.10;99.90;;;22.69;79.33;95361.03;10505355;28;1795;-76
2022/06/05 13:44:15;;;;;;;;;;;23.60;99.90;;;22.37;81.24;95366.66;10510888;28;1815;-76
2022/06/05 13:49:35;;;;;;;;;;;23.30;99.90;;;22.31;82.34;95365.34;10499781;28;1902;-76
2022/06/05 13:54:38;;;;;;;;;;;23.20;99.90;;;22.18;82.94;95352.94;10489926;28;1526;-76
2022/06/05 13:59:41;;;;;;;;;;;23.00;99.90;;;22.11;83.97;95356.31;10480594;28;1955;-76
2022/06/05 14:04:44;;;;;;;;;;;22.90;99.90;;;22.00;85.66;95358.78;10488984;28;1837;-76
2022/06/05 14:09:47;;;;;;;;;;;22.90;99.90;;;21.85;86.91;95354.94;10509807;28;1988;-75
2022/06/05 14:14:50;;;;;;;;;;;22.70;99.90;;;21.76;87.63;95350.81;10501661;28;2041;-76
2022/06/05 14:19:54;;;;;;;;;;;22.60;99.90;;;21.62;89.36;95359.44;10510131;28;1861;-76
2022/06/05 14:25:08;;;;;;;;;;;22.50;99.90;;;21.35;92.08;95372.06;10502767;28;1845;-76
2022/06/05 14:30:11;;;;;;;;;;;22.30;99.90;;;21.24;95.36;95409.22;10497211;28;1971;-76
2022/06/05 14:35:15;;;;;;;;;;;22.10;99.90;;;20.83;100.00;95441.31;10483891;28;1873;-75
2022/06/05 14:40:19;;;;;;;;;;;21.80;99.90;;;20.34;100.00;95456.97;10501407;28;1842;-75
2022/06/05 14:45:22;;;;;;;;;;;21.50;99.90;;;20.02;100.00;95450.53;10507831;28;1859;-76
2022/06/05 14:50:25;;;;;;;;;;;21.10;99.90;;;19.35;100.00;95467.03;10486900;28;1954;-77
2022/06/05 15:00:52;;;;;;;;;;;19.80;99.90;;;18.52;100.00;95511.44;10508397;28;1891;-75
2022/06/05 15:05:55;;;;;;;;;;;19.40;99.90;;;18.30;100.00;95512.50;10509376;28;1904;-75
2022/06/05 15:10:59;;;;;;;;;;;19.10;99.90;;;18.07;100.00;95522.09;10509548;28;2012;-76
2022/06/05 15:16:03;;;;;;;;;;;18.90;99.90;;;17.70;100.00;95557.06;10507998;28;2115;-77
2022/06/05 15:21:06;;;;;;;;;;;18.60;99.90;;;17.32;100.00;95584.16;10511178;28;1844;-76
2022/06/05 15:26:09;;;;;;;;;;;18.30;99.90;;;16.92;100.00;95591.63;10503668;28;1938;-77
2022/06/05 15:31:12;;;;;;;;;;;17.90;99.90;;;16.52;100.00;95594.41;10490000;28;1628;-76
2022/06/05 15:36:16;;;;;;;;;;;17.40;99.90;;;16.27;100.00;95603.25;10504321;28;1487;-78
2022/06/05 15:41:19;;;;;;;;;;;17.00;99.90;;;15.95;100.00;95597.06;10542066;28;1679;-76
2022/06/05 15:46:23;;;;;;;;;;;16.80;99.90;;;15.68;100.00;95608.88;10533421;28;1917;-77
2022/06/05 15:51:27;;;;;;;;;;;16.50;99.90;;;15.57;100.00;95612.94;10498712;28;1880;-77
2022/06/05 15:56:30;;;;;;;;;;;16.30;99.90;;;15.45;100.00;95599.94;10488313;28;1827;-77
2022/06/05 16:01:34;;;;;;;;;;;16.20;99.90;;;15.41;100.00;95597.06;10505873;28;2012;-77
2022/06/05 16:06:38;;;;;;;;;;;16.20;99.90;;;15.31;100.00;95613.53;10478683;28;1967;-77
2022/06/05 16:11:42;;;;;;;;;;;16.00;99.90;;;15.19;100.00;95623.31;10507091;28;2039;-77
2022/06/05 16:16:46;;;;;;;;;;;16.00;99.90;;;15.15;100.00;95644.81;10502053;28;1848;-77
2022/06/05 16:21:49;;;;;;;;;;;15.90;99.90;;;15.03;100.00;95642.63;10503011;28;2000;-77
2022/06/05 16:26:52;;;;;;;;;;;15.80;99.90;;;14.97;100.00;95660.09;10494306;28;1980;-77
2022/06/05 16:32:02;;;;;;;;;;;15.70;99.90;;;14.94;100.00;95640.94;10493896;28;1870;-77
2022/06/05 16:42:26;;;;;;;;;;;15.70;99.90;;;14.77;100.00;95590.16;10458780;28;2042;-77
2022/06/05 16:47:29;;;;;;;;;;;15.50;99.90;;;14.71;100.00;95596.78;10496010;28;2033;-76
2022/06/05 16:52:32;;;;;;;;;;;15.50;99.90;;;14.79;100.00;95587.94;10506975;28;1927;-76
2022/06/05 16:57:35;;;;;;;;;;;15.50;99.90;;;14.82;100.00;95552.16;10494573;28;1887;-76
2022/06/05 17:02:39;;;;;;;;;;;15.50;99.90;;;14.79;100.00;95529.22;10495019;28;1977;-76
2022/06/05 17:07:42;;;;;;;;;;;15.50;99.90;;;14.90;100.00;95567.69;10509072;28;1936;-77
2022/06/05 17:12:46;;;;;;;;;;;15.60;99.90;;;15.01;100.00;95574.44;10505292;28;1876;-77
2022/06/05 17:17:50;;;;;;;;;;;15.70;99.90;;;14.99;100.00;95557.72;10505137;28;1897;-77
2022/06/05 17:22:53;;;;;;;;;;;15.80;99.90;;;14.99;100.00;95576.66;10512856;28;1798;-78
2022/06/05 17:27:56;;;;;;;;;;;15.80;99.90;;;14.97;100.00;95561.84;10510420;28;2013;-77
2022/06/05 17:33:04;;;;;;;;;;;15.80;99.90;;;14.93;100.00;95521.06;10521706;28;1941;-77
2022/06/05 17:38:07;;;;;;;;;;;15.70;99.90;;;14.97;100.00;95538.28;10488837;28;1831;-77
2022/06/05 17:43:10;;;;;;;;;;;15.70;99.90;;;15.00;100.00;95553.91;10514495;28;1849;-76
2022/06/05 17:48:13;;;;;;;;;;;15.60;99.90;;;15.04;100.00;95571.13;10506706;28;1984;-77
2022/06/05 17:53:17;;;;;;;;;;;15.80;99.90;;;15.08;100.00;95598.41;10514760;28;1798;-75
2022/06/05 17:58:21;;;;;;;;;;;15.90;99.90;;;15.06;100.00;95595.97;10486848;28;1909;-76
2022/06/05 18:03:25;;;;;;;;;;;15.80;99.90;;;15.08;100.00;95607.31;10507506;28;2024;-76
2022/06/05 18:08:27;;;;;;;;;;;15.80;99.90;;;15.13;100.00;95620.72;10491313;28;1902;-78
2022/06/05 18:13:31;;;;;;;;;;;;;;;15.11;100.00;95633.78;10508331;28;1850;-78
2022/06/05 18:18:34;;;;;;;;;;;;;;;15.12;100.00;95638.06;10501297;28;1838;-76
2022/06/05 18:23:42;;;;;;;;;;;;;;;15.03;100.00;95648.03;10504116;28;2024;-76
2022/06/05 18:28:47;;;;;;;;;;;;;;;15.07;100.00;95664.47;10479678;28;1992;-76
2022/06/05 18:33:51;;;;;;;;;;;;;;;15.04;100.00;95676.72;10503459;28;1790;-77
2022/06/05 18:38:54;;;;;;;;;;;;;;;15.08;100.00;95696.66;10495984;28;1979;-77
2022/06/05 18:43:58;;;;;;;;;;;;;;;15.12;100.00;95694.94;10480010;28;1800;-76
2022/06/05 18:49:02;;;;;;;;;;;;;;;15.18;100.00;95719.19;10508323;28;1975;-77
2022/06/05 18:54:06;;;;;;;;;;;;;;;15.15;100.00;95734.16;10505505;28;1803;-76
2022/06/05 18:59:09;;;;;;;;;;;;;;;15.13;100.00;95745.25;10481156;28;2016;-77
2022/06/05 19:04:13;;;;;;;;;;;15.90;99.90;;;15.23;100.00;95754.28;10512842;28;1814;-77
2022/06/05 19:09:17;;;;;;;;;;;15.90;99.90;;;15.19;100.00;95754.09;10478117;28;2621;-75
2022/06/05 19:14:20;;;;;;;;;;;16.00;99.90;;;15.09;100.00;95771.34;10507708;28;2040;-77
2022/06/05 19:19:24;;;;;;;;;;;16.00;99.90;;;15.03;100.00;95771.75;10497377;28;1837;-77
2022/06/05 19:24:28;;;;;;;;;;;15.90;99.90;;;15.05;100.00;95777.66;10474787;28;1731;-76
2022/06/05 19:29:30;;;;;;;;;;;15.80;99.90;;;15.03;100.00;95777.19;10481973;28;1965;-76
2022/06/05 19:34:33;;;;;;;;;;;15.90;99.90;;;15.01;100.00;95780.16;10480321;28;2058;-77
2022/06/05 19:39:36;;;;;;;;;;;15.90;99.90;;;15.05;100.00;95781.19;10483368;28;1806;-77
2022/06/05 19:44:39;;;;;;;;;;;16.00;99.90;;;15.06;100.00;95793.59;10530070;28;1403;-75
2022/06/05 19:49:43;;;;;;;;;;;15.90;99.90;;;15.18;100.00;95795.00;10546555;28;1977;-76
2022/06/05 19:54:47;;;;;;;;;;;15.80;99.90;;;15.21;100.00;95814.19;10474637;28;2256;-76
2022/06/05 19:59:50;;;;;;;;;;;16.00;99.90;;;15.31;100.00;95832.09;10496478;28;1800;-76
2022/06/05 20:04:53;;;;;;;;;;;16.00;99.90;;;15.32;100.00;95833.69;10505836;28;1891;-77
2022/06/05 20:09:56;;;;;;;;;;;16.20;99.90;;;15.26;100.00;95829.50;10489272;28;1977;-77
2022/06/05 20:15:00;;;;;;;;;;;16.10;99.90;;;15.37;100.00;95841.72;10487407;28;1838;-75
2022/06/05 20:20:04;;;;;;;;;;;16.00;99.90;;;15.39;100.00;95844.94;10475418;28;1827;-76
2022/06/05 20:25:07;;;;;;;;;;;16.10;99.90;;;15.39;100.00;95844.94;10501852;28;1906;-77
2022/06/05 20:30:10;;;;;;;;;;;16.20;99.90;;;15.45;100.00;95840.22;10502150;28;1918;-76
2022/06/05 20:35:13;;;;;;;;;;;16.70;99.90;;;15.41;100.00;95832.72;10481252;28;1728;-77
2022/06/05 20:40:17;;;;;;;;;;;16.20;99.90;;;15.43;100.00;95818.84;10502217;28;1845;-77
2022/06/05 20:45:20;;;;;;;;;;;16.30;99.90;;;15.48;100.00;95816.03;10504697;28;1838;-76
2022/06/05 20:50:23;;;;;;;;;;;16.30;99.90;;;15.48;100.00;95820.66;10501334;28;1977;-76
2022/06/05 20:55:27;;;;;;;;;;;16.30;99.90;;;15.46;100.00;95812.84;10502108;28;1982;-75
2022/06/05 21:00:31;;;;;;;;;;;16.10;99.90;;;15.34;100.00;95804.44;10488317;28;1844;-76
2022/06/05 21:21:37;;;;;;;;;;;16.00;99.90;;;14.91;100.00;95791.22;10487287;28;1851;-76
2022/06/05 21:26:40;;;;;;;;;;;15.80;99.90;;;14.91;100.00;95796.63;10483845;28;1873;-75
2022/06/05 21:31:43;;;;;;;;;;;15.80;99.90;;;14.83;100.00;95811.66;10499130;28;1922;-75
2022/06/05 21:36:47;;;;;;;;;;;15.90;99.90;;;14.81;100.00;95804.91;10497287;28;1559;-75
2022/06/05 21:41:50;;;;;;;;;;;15.80;99.90;;;14.79;100.00;95815.25;10472102;28;1868;-75
2022/06/05 21:46:54;;;;;;;;;;;15.80;99.90;;;14.79;100.00;95826.06;10498271;28;1798;-75
2022/06/05 21:51:57;;;;;;;;;;;15.70;99.90;;;14.74;100.00;95824.25;10480297;28;1914;-78
2022/06/05 21:57:00;;;;;;;;;;;15.60;99.90;;;14.75;100.00;95827.75;10483705;28;1884;-81
2022/06/05 22:02:03;;;;;;;;;;;15.70;99.90;;;14.65;100.00;95830.66;10504102;28;1883;-76
2022/06/05 22:07:08;;;;;;;;;;;15.70;99.90;;;14.60;100.00;95834.25;10496248;28;1879;-76
2022/06/05 22:12:11;;;;;;;;;;;15.60;99.90;;;14.58;100.00;95842.69;10501912;28;1930;-77
2022/06/05 22:17:14;;;;;;;;;;;15.60;99.90;;;14.53;100.00;95833.84;10473016;28;1829;-75
2022/06/05 22:22:17;;;;;;;;;;;15.40;99.90;;;14.50;100.00;95832.53;10494520;28;1766;-75
2022/06/05 22:27:20;;;;;;;;;;;15.40;99.90;;;14.48;100.00;95853.66;10495241;28;1778;-76
2022/06/05 22:32:23;;;;;;;;;;;15.40;99.90;;;14.38;100.00;95853.81;10492818;28;1979;-77
2022/06/05 22:37:26;;;;;;;;;;;15.40;99.90;;;14.28;100.00;95846.66;10508781;28;1796;-76
2022/06/05 22:42:29;;;;;;;;;;;15.30;99.90;;;14.26;100.00;95853.47;10494551;28;1866;-76
2022/06/05 22:47:32;;;;;;;;;;;15.30;99.90;;;14.17;100.00;95853.31;10501089;28;1810;-76
2022/06/05 22:52:35;;;;;;;;;;;15.20;99.90;;;14.12;100.00;95858.00;10476106;28;1983;-77
2022/06/05 22:57:39;;;;;;;;;;;15.00;99.90;;;14.01;100.00;95858.16;10495093;28;1818;-75
2022/06/05 23:03:02;;;;;;;;;;;15.00;99.90;;;14.04;100.00;95870.28;10506413;28;1865;-76
2022/06/05 23:08:05;;;;;;;;;;;14.90;99.90;;;14.03;100.00;95863.28;10486592;28;1915;-75
2022/06/05 23:13:09;;;;;;;;;;;15.00;99.90;;;13.99;100.00;95863.03;10505796;28;1914;-75
2022/06/05 23:18:12;;;;;;;;;;;14.90;99.90;;;13.91;100.00;95862.91;10498112;28;1863;-76
2022/06/05 23:23:15;;;;;;;;;;;14.90;99.90;;;13.78;100.00;95851.72;10503480;28;1814;-76
2022/06/05 23:28:19;;;;;;;;;;;14.90;99.90;;;13.75;100.00;95852.31;10498740;28;1910;-75
2022/06/05 23:33:22;;;;;;;;;;;14.80;99.90;;;13.74;100.00;95844.47;10505969;28;1978;-75
2022/06/05 23:38:26;;;;;;;;;;;14.80;99.90;;;13.72;100.00;95843.97;10507294;28;1867;-75
2022/06/05 23:43:30;;;;;;;;;;;14.70;99.90;;;13.74;100.00;95830.97;10503006;28;1870;-76
2022/06/05 23:48:33;;;;;;;;;;;14.70;99.90;;;13.77;100.00;95825.00;10522042;28;1894;-75
2022/06/05 23:53:36;;;;;;;;;;;14.70;99.90;;;13.74;100.00;95817.47;10536409;28;1858;-75
2022/06/05 23:58:41;;;;;;;;;;;14.70;99.90;;;13.83;100.00;95804.94;10485470;28;1930;-75
